• Join FlightAware (Why Join?)
  • Login
  • US Flag 
12:53AM EDT


 

Airport Tracker/Info


-or-


 

Live Flight TrackerFlight Track Log ✈ SWA1733 ✈ 30-Apr-2013 ✈ KSAT - KPHX

Flight Track Log - Related Links

Times and Time Zones

All times are in EDT time to prevent confusion due to time zone crossing. See the SWA1733 flight status page for this flight to view local times or setup timezone preferences in your user account.

Time Position Orientation Groundspeed Altitude Reporting Facility
EDT Latitude Longitude Course Direction KTS MPH feet Rate Location/Type
07:50AM 29.5447 -98.4517 40° Northeast 148 170 1,800  Level Houston Center
07:51AM 29.5619 -98.4353 40° Northeast 171 197 2,500 2,280 Climbing Houston Center
07:51AM 29.5894 -98.4108 38° Northeast 193 222 4,300 3,120 Climbing Houston Center
07:52AM 29.6397 -98.4428 331° Northwest 249 287 7,500 3,480 Climbing Houston Center
07:53AM 29.6933 -98.5200 309° West 287 330 11,400 3,840 Climbing Houston Center
07:54AM 29.7517 -98.6033 309° West 334 384 15,400 3,720 Climbing Houston Center
07:55AM 29.7950 -98.7039 296° West 356 410 19,100 3,540 Climbing Houston Center
07:56AM 29.8317 -98.8269 289° West 380 437 22,600 3,060 Climbing Houston Center
07:57AM 29.8681 -98.9475 289° West 400 460 25,400 2,580 Climbing Houston Center
07:58AM 29.9056 -99.0725 289° West 415 478 27,900 2,160 Climbing Houston Center
07:59AM 29.9397 -99.1847 289° West 427 491 29,900 2,160 Climbing Houston Center
08:00AM 29.9786 -99.3167 289° West 435 501 32,300 2,400 Climbing Houston Center
08:01AM 30.0247 -99.4728 289° West 433 498 34,900 2,340 Climbing Houston Center
08:02AM 30.0628 -99.6025 289° West 429 494 37,100 1,800 Climbing Houston Center
08:03AM 30.1000 -99.7294 289° West 421 484 38,700 1,380 Climbing Houston Center
08:04AM 30.1381 -99.8547 289° West 417 480 40,000 600 Climbing Houston Center
08:05AM 30.1736 -99.9794 288° West 413 475 40,000  Level Houston Center
08:07AM 30.2092 -100.1017 289° West 405 466 40,000  Level Houston Center
08:08AM 30.2447 -100.2258 288° West 413 475 40,000  Level Houston Center
08:09AM 30.2869 -100.3733 288° West 409 471 40,000  Level Houston Center
08:10AM 30.3219 -100.4981 288° West 410 472 40,000  Level Houston Center
08:11AM 30.3578 -100.6244 288° West 415 478 40,000  Level Houston Center
08:12AM 30.3947 -100.7519 289° West 419 482 40,000  Level Houston Center
08:13AM 30.4289 -100.8822 287° West 421 484 40,000  Level Houston Center
08:14AM 30.4647 -101.0106 288° West 422 486 40,000  Level Houston Center
08:15AM 30.5011 -101.1411 288° West 425 489 40,000  Level Houston Center
08:16AM 30.5442 -101.2961 288° West 423 487 40,000  Level Houston Center
08:17AM 30.5800 -101.4264 288° West 424 488 40,000  Level Houston Center
08:18AM 30.6164 -101.5569 288° West 425 489 40,000  Level Houston Center
08:19AM 30.6450 -101.6500 290° West 425 489 40,000  Level Albuquerque Center
08:20AM 30.6806 -101.7822 287° West 426 490 40,000  Level Albuquerque Center
08:21AM 30.7161 -101.9131 288° West 427 491 40,000  Level Albuquerque Center
08:22AM 30.7506 -102.0444 287° West 425 489 40,000  Level Albuquerque Center
08:23AM 30.7858 -102.1753 287° West 425 489 40,000  Level Albuquerque Center
08:24AM 30.8219 -102.3069 288° West 424 488 40,000  Level Albuquerque Center
08:25AM 30.8567 -102.4372 287° West 422 486 40,000  Level Albuquerque Center
08:26AM 30.8917 -102.5681 287° West 421 484 40,000  Level Albuquerque Center
08:27AM 30.9258 -102.6992 287° West 421 484 40,000  Level Albuquerque Center
08:28AM 30.9608 -102.8311 287° West 423 487 40,000  Level Albuquerque Center
08:29AM 30.9950 -102.9617 287° West 422 486 40,000  Level Albuquerque Center
08:30AM 31.0289 -103.0956 286° West 426 490 40,000  Level Albuquerque Center
08:31AM 31.0644 -103.2275 287° West 427 491 40,000  Level Albuquerque Center
08:32AM 31.0994 -103.3606 287° West 428 493 40,000  Level Albuquerque Center
08:33AM 31.1331 -103.4922 287° West 424 488 40,000  Level Albuquerque Center
08:34AM 31.1661 -103.6247 286° West 425 489 40,000  Level Albuquerque Center
08:35AM 31.1992 -103.7567 286° West 424 488 40,000  Level Albuquerque Center
08:36AM 31.2356 -103.8994 287° West 426 490 40,000  Level Albuquerque Center
08:37AM 31.2700 -104.0317 287° West 427 491 40,000  Level Albuquerque Center
08:38AM 31.3022 -104.1642 286° West 426 490 40,000  Level Albuquerque Center
08:39AM 31.3364 -104.2961 287° West 426 490 40,000  Level Albuquerque Center
08:40AM 31.3683 -104.4256 286° West 421 484 40,000  Level Albuquerque Center
08:41AM 31.4019 -104.5550 287° West 418 481 40,000  Level Albuquerque Center
08:42AM 31.4325 -104.6839 286° West 415 478 40,000  Level Albuquerque Center
08:43AM 31.4658 -104.8133 287° West 416 479 40,000  Level Albuquerque Center
08:44AM 31.5033 -104.9694 286° West 418 481 40,000  Level Albuquerque Center
08:45AM 31.5350 -105.1003 286° West 420 483 40,000  Level Albuquerque Center
08:46AM 31.5675 -105.2306 286° West 420 483 40,000  Level Albuquerque Center
08:47AM 31.5989 -105.3664 285° West 435 501 40,000  Level Albuquerque Center
08:48AM 31.6300 -105.4972 286° West 422 486 40,000  Level Albuquerque Center
08:49AM 31.6614 -105.6281 286° West 420 483 40,000  Level Albuquerque Center
08:50AM 31.6919 -105.7617 285° West 424 488 40,000  Level Albuquerque Center
08:51AM 31.7242 -105.8939 286° West 424 488 40,000  Level Albuquerque Center
08:52AM 31.7556 -106.0278 285° West 425 489 40,000  Level Albuquerque Center
08:53AM 31.7872 -106.1597 286° West 422 486 40,000  Level Albuquerque Center
08:54AM 31.8189 -106.2914 286° West 421 484 40,000  Level Albuquerque Center
08:55AM 31.8292 -106.4292 275° West 421 484 40,000  Level Albuquerque Center
08:56AM 31.8389 -106.5886 274° West 420 483 40,000  Level Albuquerque Center
08:57AM 31.8478 -106.6964 276° West 415 478 40,000  Level Albuquerque Center
08:58AM 31.8583 -106.8306 275° West 412 474 40,000  Level Albuquerque Center
08:59AM 31.8694 -106.9908 275° West 409 471 40,000  Level Albuquerque Center
09:00AM 31.8783 -107.1222 275° West 403 464 40,000  Level Albuquerque Center
09:01AM 31.8878 -107.2522 275° West 400 460 40,000  Level Albuquerque Center
09:02AM 31.8961 -107.3814 274° West 397 457 40,000  Level Albuquerque Center
09:03AM 31.9039 -107.5136 274° West 398 458 40,000  Level Albuquerque Center
09:04AM 31.9131 -107.6456 275° West 402 463 40,000  Level Albuquerque Center
09:05AM 31.9222 -107.7736 275° West 397 457 40,000  Level Albuquerque Center
09:06AM 31.9517 -107.9031 285° West 406 467 40,000  Level Albuquerque Center
09:07AM 31.9819 -108.0306 286° West 405 466 40,000  Level Albuquerque Center
09:08AM 32.0114 -108.1522 286° West 405 466 40,000  Level Albuquerque Center
09:09AM 32.0406 -108.2789 285° West 404 465 40,000  Level Albuquerque Center
09:10AM 32.0706 -108.4072 285° West 407 468 40,000  Level Albuquerque Center
09:11AM 32.1008 -108.5342 286° West 407 468 40,000  Level Albuquerque Center
09:12AM 32.1303 -108.6639 285° West 409 471 40,000  Level Albuquerque Center
09:13AM 32.1608 -108.7931 286° West 412 474 40,000  Level Albuquerque Center
09:14AM 32.1911 -108.9242 285° West 414 476 40,000  Level Albuquerque Center
09:15AM 32.2272 -109.0825 285° West 417 480 40,000  Level Albuquerque Center
09:16AM 32.2578 -109.2153 285° West 420 483 40,000  Level Albuquerque Center
09:17AM 32.2883 -109.3478 285° West 420 483 40,000  Level Albuquerque Center
09:18AM 32.3211 -109.4806 286° West 422 486 40,000  Level Albuquerque Center
09:19AM 32.3533 -109.6131 286° West 423 487 40,000  Level Albuquerque Center
09:20AM 32.3844 -109.7458 286° West 422 486 40,000 -900 Level Albuquerque Center
09:21AM 32.4189 -109.8792 287° West 425 489 38,200 -2,220 Descending Albuquerque Center
09:22AM 32.4519 -110.0164 286° West 433 498 35,500 -3,000 Descending Albuquerque Center
09:23AM 32.4850 -110.1597 285° West 448 516 32,100 -3,120 Descending Albuquerque Center
09:24AM 32.5197 -110.3028 286° West 455 524 29,300 -2,880 Descending Albuquerque Center
09:25AM 32.5553 -110.4608 285° West 436 502 26,300 -2,640 Descending Albuquerque Center
09:26AM 32.5889 -110.5906 287° West 420 483 24,000 -1,140 Descending Albuquerque Center
09:27AM 32.6467 -110.6994 302° West 398 458 24,000  Level Albuquerque Center
09:28AM 32.7061 -110.8094 303° West 395 455 24,000  Level Albuquerque Center
09:29AM 32.7658 -110.9203 303° West 398 458 24,000 -1,080 Level Albuquerque Center
09:30AM 32.8247 -111.0314 302° West 398 458 21,900 -2,040 Descending Albuquerque Center
09:31AM 32.8803 -111.1414 301° West 394 453 20,000 -2,100 Descending Albuquerque Center
09:32AM 32.9292 -111.2406 300° West 362 417 17,700 -2,220 Descending Albuquerque Center
09:33AM 32.9733 -111.3400 298° West 343 395 15,600 -1,680 Descending Albuquerque Center
09:34AM 33.0169 -111.4344 299° West 327 376 14,300 -1,380 Descending Albuquerque Center
09:35AM 33.0628 -111.5197 303° West 308 354 12,800 -1,140 Descending Albuquerque Center
09:36AM 33.1053 -111.6056 301° West 301 346 12,000 -540 Descending Albuquerque Center
09:37AM 33.1486 -111.6900 302° West 298 343 11,800 -960 Descending Albuquerque Center
09:38AM 33.1903 -111.7736 301° West 293 337 10,100 -1,140 Descending Albuquerque Center
09:39AM 33.2400 -111.8703 302° West 285 328 9,500 -600 Descending Albuquerque Center
09:40AM 33.2769 -111.9442 301° West 262 302 9,000 -780 Descending Albuquerque Center
09:41AM 33.3108 -112.0103 302° West 237 273 8,000 -1,080 Descending Albuquerque Center
09:42AM 33.3428 -112.0767 300° West 231 266 6,900 -1,020 Descending Albuquerque Center
09:43AM 33.3431 -112.1489 270° West 217 250 6,000 -900 Descending Albuquerque Center
09:45AM 33.3889 -112.1808 330° Northwest 222 255 5,100 -960 Descending Albuquerque Center
09:46AM 33.4247 -112.1519 34° Northeast 169 194 4,100 -1,320 Descending Albuquerque Center
09:47AM 33.4314 -112.1050 80° East 148 170 2,500 -1,200 Descending Albuquerque Center
09:48AM 33.4317 -112.0617 90° East 133 153 1,700 -720 Descending Albuquerque Center
09:49AM 33.4308 -112.0194 91° East 127 146 1,100 -600 Descending Albuquerque Center